Time;durP1;ratioP1;P1;durP2;ratioP2;P2;SDS_P1;SDS_P2;PMS_P1;PMS_P2;Temp;Humidity;BMP_temperature;BMP_pressure;BME280_temperature;BME280_humidity;BME280_pressure;Samples;Min_cycle;Max_cycle;Signal;HPM_P1;HPM_P2
2022/04/08 00:02:13;;;;;;;4.95;1.55;;;;;;;5.13;100.00;97676.63;5079200;28;20067;-81
2022/04/08 00:04:39;;;;;;;7.22;1.58;;;;;;;5.08;100.00;97686.56;5079022;28;20048;-81
2022/04/08 00:07:04;;;;;;;7.18;1.60;;;;;;;5.04;100.00;97696.47;5077149;28;20039;-82
2022/04/08 00:09:30;;;;;;;6.25;1.52;;;;;;;5.00;100.00;97685.16;5077668;28;20465;-81
2022/04/08 00:11:55;;;;;;;10.32;1.67;;;;;;;4.87;100.00;97702.59;5077647;28;20028;-83
2022/04/08 00:14:21;;;;;;;5.60;1.35;;;;;;;4.88;100.00;97696.34;5076756;28;20119;-83
2022/04/08 00:16:46;;;;;;;10.32;1.90;;;;;;;4.84;100.00;97693.00;5078112;28;20115;-81
2022/04/08 00:19:12;;;;;;;8.70;1.50;;;;;;;4.80;100.00;97705.50;5077755;28;20024;-82
2022/04/08 00:21:37;;;;;;;6.80;1.42;;;;;;;4.72;100.00;97715.59;5076419;28;20021;-83
2022/04/08 00:24:03;;;;;;;6.10;1.60;;;;;;;4.80;100.00;97726.66;5078617;28;20503;-81
2022/04/08 00:26:29;;;;;;;5.63;1.70;;;;;;;4.74;100.00;97729.59;5078659;28;20024;-82
2022/04/08 00:28:54;;;;;;;6.35;1.70;;;;;;;4.74;100.00;97737.50;5078938;28;20074;-83
2022/04/08 00:31:20;;;;;;;5.05;1.20;;;;;;;4.72;100.00;97743.81;5079535;28;20022;-82
2022/04/08 00:33:46;;;;;;;5.70;1.30;;;;;;;4.72;100.00;97738.50;5077075;28;20028;-82
2022/04/08 00:36:12;;;;;;;5.75;1.55;;;;;;;4.64;100.00;97741.53;5078625;28;20049;-82
2022/04/08 00:38:37;;;;;;;6.85;1.65;;;;;;;4.63;100.00;97750.41;5078274;28;20062;-81
2022/04/08 00:41:03;;;;;;;10.27;1.58;;;;;;;4.60;100.00;97755.81;5078206;28;20074;-82
2022/04/08 00:43:34;;;;;;;7.88;1.75;;;;;;;4.68;100.00;97766.91;5076783;28;20111;-82
2022/04/08 00:46:00;;;;;;;7.18;1.60;;;;;;;4.72;100.00;97757.03;5075430;28;20100;-82
2022/04/08 00:48:25;;;;;;;11.10;2.30;;;;;;;4.64;100.00;97762.69;5077929;28;20073;-82
2022/04/08 00:50:50;;;;;;;10.63;1.73;;;;;;;4.60;100.00;97771.69;5077864;28;20016;-82
2022/04/08 00:53:17;;;;;;;9.27;1.98;;;;;;;4.58;100.00;97780.56;5076791;28;20065;-83
2022/04/08 00:55:42;;;;;;;10.07;1.95;;;;;;;4.52;100.00;97775.53;5076379;28;20070;-82
2022/04/08 00:58:07;;;;;;;10.15;1.77;;;;;;;4.50;100.00;97793.25;5077216;28;20492;-83
2022/04/08 01:00:35;;;;;;;10.32;1.70;;;;;;;4.52;100.00;97791.38;5077700;28;20031;-82
2022/04/08 01:03:01;;;;;;;10.18;2.28;;;;;;;4.50;100.00;97806.47;5077339;28;20035;-83
2022/04/08 01:05:27;;;;;;;4.20;1.55;;;;;;;4.43;100.00;97818.25;5078754;28;20025;-83
2022/04/08 01:07:54;;;;;;;8.18;2.08;;;;;;;4.31;100.00;97815.22;5078262;28;20024;-82
2022/04/08 01:10:20;;;;;;;5.93;1.83;;;;;;;4.25;100.00;97845.38;5077007;28;20035;-82
2022/04/08 01:12:45;;;;;;;11.25;1.98;;;;;;;4.19;100.00;97842.16;5079948;28;20056;-83
2022/04/08 01:15:11;;;;;;;7.68;1.73;;;;;;;4.10;100.00;97865.41;5077793;28;20021;-83
2022/04/08 01:17:36;;;;;;;7.85;1.77;;;;;;;3.96;100.00;97857.22;5077165;28;20017;-82
2022/04/08 01:20:02;;;;;;;6.05;1.98;;;;;;;3.74;100.00;97874.81;5077946;28;20111;-82
2022/04/08 01:22:28;;;;;;;4.00;0.90;;;;;;;3.64;100.00;97874.31;5079841;28;20059;-82
2022/04/08 01:25:02;;;;;;;4.22;1.00;;;;;;;3.53;100.00;97890.56;5077075;28;20115;-81
2022/04/08 01:27:28;;;;;;;4.05;1.00;;;;;;;3.49;100.00;97886.34;5077648;28;20520;-82
2022/04/08 01:29:54;;;;;;;3.85;0.90;;;;;;;3.40;100.00;97890.19;5076501;28;20036;-83
2022/04/08 01:32:19;;;;;;;1.40;0.70;;;;;;;3.35;100.00;97885.13;5078105;28;20021;-82
2022/04/08 01:34:45;;;;;;;2.53;1.20;;;;;;;3.35;100.00;97889.56;5078061;28;20031;-83
2022/04/08 01:37:11;;;;;;;4.65;1.55;;;;;;;3.40;100.00;97898.13;5077477;28;20037;-83
2022/04/08 01:39:37;;;;;;;6.50;1.98;;;;;;;3.41;100.00;97897.22;5076360;28;20028;-83
2022/04/08 01:42:03;;;;;;;5.30;1.60;;;;;;;3.46;100.00;97891.75;5077797;28;20025;-82
2022/04/08 01:44:28;;;;;;;6.15;1.70;;;;;;;3.46;100.00;97916.34;5077054;28;20024;-82
2022/04/08 01:46:53;;;;;;;3.38;1.48;;;;;;;3.46;100.00;97911.09;5077743;28;20031;-81
2022/04/08 01:49:19;;;;;;;3.55;1.63;;;;;;;3.44;100.00;97925.25;5076951;28;20078;-81
2022/04/08 01:51:44;;;;;;;6.53;1.30;;;;;;;3.50;100.00;97929.44;5077075;28;20024;-82
2022/04/08 01:54:09;;;;;;;4.03;1.30;;;;;;;3.43;100.00;97936.72;5077287;28;20050;-82
2022/04/08 01:56:35;;;;;;;6.18;1.05;;;;;;;3.50;100.00;97940.00;5074860;28;20095;-82
2022/04/08 01:59:00;;;;;;;5.57;1.58;;;;;;;3.42;100.00;97942.94;5076741;28;20101;-81
2022/04/08 02:01:25;;;;;;;4.53;1.42;;;;;;;3.38;100.00;97944.81;5076153;28;20039;-81
2022/04/08 02:03:50;;;;;;;2.45;1.10;;;;;;;3.31;100.00;97946.84;5075814;28;20021;-82
2022/04/08 02:06:16;;;;;;;5.72;1.50;;;;;;;3.27;100.00;97954.94;5076045;28;20107;-82
2022/04/08 02:08:41;;;;;;;4.43;1.77;;;;;;;3.27;100.00;97960.22;5078033;28;20488;-82
2022/04/08 02:11:06;;;;;;;3.15;1.15;;;;;;;3.27;100.00;97970.75;5076457;28;20031;-82
2022/04/08 02:13:33;;;;;;;5.78;1.40;;;;;;;3.24;100.00;97975.25;5077785;28;20492;-82
2022/04/08 02:15:58;;;;;;;2.60;1.10;;;;;;;3.14;100.00;97989.69;5075678;28;20481;-81
2022/04/08 02:18:24;;;;;;;5.03;1.17;;;;;;;3.13;100.00;97990.59;5076821;28;20076;-82
2022/04/08 02:20:51;;;;;;;3.28;1.05;;;;;;;3.00;100.00;97984.88;5077188;28;20078;-82
2022/04/08 02:23:16;;;;;;;2.63;1.25;;;;;;;3.01;100.00;98003.31;5075262;28;20031;-82
2022/04/08 02:25:42;;;;;;;2.58;1.33;;;;;;;3.00;100.00;98003.34;5074767;28;20021;-81
2022/04/08 02:28:08;;;;;;;5.15;1.40;;;;;;;3.11;100.00;98008.25;5074528;28;20021;-81
2022/04/08 02:30:33;;;;;;;3.65;1.02;;;;;;;3.10;100.00;98019.69;5075046;28;20016;-81
2022/04/08 02:33:01;;;;;;;2.05;1.00;;;;;;;3.08;100.00;98018.91;5076507;28;20070;-81
2022/04/08 02:35:28;;;;;;;3.15;1.20;;;;;;;3.13;100.00;98017.81;5075696;28;20504;-82
2022/04/08 02:37:54;;;;;;;3.85;1.20;;;;;;;3.09;100.00;98015.34;5077360;28;20120;-82
2022/04/08 02:40:19;;;;;;;2.47;1.20;;;;;;;3.12;100.00;98021.38;5077195;28;20040;-82
2022/04/08 02:42:44;;;;;;;4.72;1.48;;;;;;;3.16;100.00;98026.53;5076918;28;20028;-83
2022/04/08 02:45:10;;;;;;;5.20;1.20;;;;;;;3.23;100.00;98034.16;5075670;28;20374;-81
2022/04/08 02:47:42;;;;;;;1.95;0.93;;;;;;;3.18;100.00;98037.88;5077958;28;20056;-83
2022/04/08 02:50:07;;;;;;;2.53;1.02;;;;;;;3.11;100.00;98039.88;5079270;28;20043;-82
2022/04/08 02:52:33;;;;;;;5.40;1.08;;;;;;;3.09;100.00;98041.72;5077871;28;20386;-82
2022/04/08 02:54:58;;;;;;;3.13;1.10;;;;;;;3.03;100.00;98044.56;5077473;28;20032;-82
2022/04/08 02:57:23;;;;;;;4.45;0.90;;;;;;;3.01;100.00;98061.31;5075395;28;20024;-82
2022/04/08 02:59:52;;;;;;;1.92;1.13;;;;;;;3.03;100.00;98061.25;5075412;28;20105;-81
2022/04/08 03:02:18;;;;;;;2.83;1.20;;;;;;;3.07;100.00;98064.63;5077061;28;20028;-81
2022/04/08 03:04:43;;;;;;;3.55;1.27;;;;;;;3.04;100.00;98060.31;5076826;28;20036;-82
2022/04/08 03:07:09;;;;;;;3.22;1.25;;;;;;;3.00;100.00;98075.41;5086370;22;20048;-79
2022/04/08 03:09:36;;;;;;;3.63;1.02;;;;;;;2.97;100.00;98088.69;5071970;28;20163;-78
2022/04/08 03:12:02;;;;;;;2.30;1.00;;;;;;;3.00;100.00;98093.88;5073200;28;20028;-78
2022/04/08 03:14:28;;;;;;;1.58;0.90;;;;;;;2.98;100.00;98087.78;5071977;28;20509;-78
2022/04/08 03:16:53;;;;;;;1.85;0.93;;;;;;;2.96;100.00;98097.53;5072295;28;20028;-78
2022/04/08 03:19:18;;;;;;;2.88;1.00;;;;;;;2.92;100.00;98095.03;5074037;28;20158;-78
2022/04/08 03:21:44;;;;;;;1.00;0.70;;;;;;;2.90;100.00;98110.91;5075897;28;20043;-78
2022/04/08 03:24:10;;;;;;;3.10;1.20;;;;;;;2.91;100.00;98102.09;5077648;28;20033;-78
2022/04/08 03:26:36;;;;;;;1.80;0.95;;;;;;;2.85;100.00;98097.88;5077483;28;20404;-79
2022/04/08 03:29:01;;;;;;;2.72;1.20;;;;;;;2.85;100.00;98103.16;5076570;28;20108;-79
2022/04/08 03:31:28;;;;;;;4.88;1.08;;;;;;;2.92;100.00;98103.81;5079439;28;20028;-79
2022/04/08 03:33:54;;;;;;;1.42;0.90;;;;;;;2.84;100.00;98105.81;5078478;28;20055;-79
2022/04/08 03:36:22;;;;;;;3.00;0.98;;;;;;;2.86;100.00;98115.41;5078316;28;20031;-79
2022/04/08 03:38:47;;;;;;;1.90;1.02;;;;;;;2.81;100.00;98116.50;5045329;28;20039;-79
2022/04/08 03:41:13;;;;;;;1.65;0.90;;;;;;;2.82;100.00;98112.94;5078502;28;20024;-79
2022/04/08 03:43:38;;;;;;;3.05;0.90;;;;;;;2.79;100.00;98127.94;5079824;28;20493;-79
2022/04/08 03:46:03;;;;;;;1.77;1.00;;;;;;;2.81;100.00;98121.78;5076146;28;20024;-79
2022/04/08 03:48:29;;;;;;;2.53;0.70;;;;;;;2.73;100.00;98130.75;5076356;28;20392;-79
2022/04/08 03:50:54;;;;;;;1.90;1.05;;;;;;;2.65;100.00;98136.31;5076755;28;20020;-79
2022/04/08 03:53:20;;;;;;;1.77;0.63;;;;;;;2.68;100.00;98138.81;5079640;28;20024;-80
2022/04/08 03:55:46;;;;;;;3.05;0.70;;;;;;;2.60;100.00;98150.53;5079382;28;20382;-80
2022/04/08 03:58:11;;;;;;;2.10;0.70;;;;;;;2.63;100.00;98153.09;5077883;28;20025;-80
2022/04/08 04:00:38;;;;;;;4.30;0.70;;;;;;;2.53;100.00;98163.91;5078447;28;20024;-80
2022/04/08 04:03:03;;;;;;;3.53;0.70;;;;;;;2.48;100.00;98178.97;5079738;28;20374;-81
2022/04/08 04:05:29;;;;;;;4.03;1.08;;;;;;;2.44;100.00;98182.63;5078450;28;20024;-81
2022/04/08 04:07:56;;;;;;;4.47;0.70;;;;;;;2.42;100.00;98187.09;5079608;28;20024;-81
2022/04/08 04:10:21;;;;;;;4.60;0.85;;;;;;;2.44;100.00;98187.91;5078521;28;20042;-81
2022/04/08 04:12:46;;;;;;;3.78;0.68;;;;;;;2.34;100.00;98196.09;5079743;28;20031;-81
2022/04/08 04:15:13;;;;;;;2.83;0.60;;;;;;;2.33;100.00;98202.25;5080986;28;20028;-81
2022/04/08 04:17:39;;;;;;;2.63;0.85;;;;;;;2.29;100.00;98205.91;5079985;28;20024;-81
2022/04/08 04:20:05;;;;;;;2.40;0.70;;;;;;;2.20;100.00;98206.16;5079547;28;20393;-81
2022/04/08 04:22:30;;;;;;;9.75;0.85;;;;;;;2.18;100.00;98223.78;5079354;28;20024;-81
2022/04/08 04:24:55;;;;;;;6.38;0.73;;;;;;;2.17;100.00;98222.91;5076354;28;20027;-81
2022/04/08 04:27:20;;;;;;;5.35;0.77;;;;;;;2.20;100.00;98228.09;5078900;28;20024;-81
2022/04/08 04:29:46;;;;;;;5.72;1.92;;;;;;;2.13;100.00;98231.81;5079691;28;20028;-81
2022/04/08 04:32:11;;;;;;;5.30;1.30;;;;;;;2.14;100.00;98237.94;5079874;28;20044;-81
2022/04/08 04:34:38;;;;;;;6.72;1.27;;;;;;;2.16;100.00;98241.41;5079315;28;20032;-81
2022/04/08 04:37:04;;;;;;;4.55;0.93;;;;;;;2.16;100.00;98234.38;5078111;28;20051;-80
2022/04/08 04:39:30;;;;;;;6.05;1.00;;;;;;;2.22;100.00;98246.47;5077562;28;20025;-82
2022/04/08 04:41:55;;;;;;;9.43;1.33;;;;;;;2.24;100.00;98249.94;5073590;28;20347;-78
2022/04/08 04:44:21;;;;;;;4.80;1.02;;;;;;;2.22;100.00;98259.63;5073161;28;20082;-80
2022/04/08 04:46:46;;;;;;;9.50;1.65;;;;;;;2.24;100.00;98255.22;5078213;28;20023;-79
2022/04/08 04:49:11;;;;;;;10.30;1.85;;;;;;;2.30;100.00;98262.94;5077839;28;20103;-80
2022/04/08 04:51:37;;;;;;;4.60;1.42;;;;;;;2.26;100.00;98255.16;5076289;28;20108;-80
2022/04/08 04:54:02;;;;;;;8.20;1.60;;;;;;;2.29;100.00;98253.31;5075692;28;20481;-80
2022/04/08 04:56:27;;;;;;;7.00;1.65;;;;;;;2.40;100.00;98265.28;5075305;28;20071;-80
2022/04/08 04:58:53;;;;;;;10.70;1.30;;;;;;;2.35;100.00;98262.78;5077688;28;20031;-80
2022/04/08 05:01:18;;;;;;;6.32;1.58;;;;;;;2.42;100.00;98260.84;5076609;28;20020;-80
2022/04/08 05:03:43;;;;;;;8.60;1.65;;;;;;;2.43;100.00;98258.16;5074995;28;20028;-80
2022/04/08 05:06:09;;;;;;;10.63;3.22;;;;;;;2.39;100.00;98266.22;5073754;28;20059;-80
2022/04/08 05:08:34;;;;;;;7.38;1.55;;;;;;;2.43;100.00;98246.75;5073663;28;20474;-79
2022/04/08 05:11:00;;;;;;;10.95;2.45;;;;;;;2.51;100.00;98263.22;5074053;28;20028;-80
2022/04/08 05:13:25;;;;;;;7.20;1.80;;;;;;;2.51;100.00;98252.66;5074863;28;20028;-79
2022/04/08 05:15:50;;;;;;;8.32;1.60;;;;;;;2.52;100.00;98262.31;5074943;28;20028;-80
2022/04/08 05:18:16;;;;;;;7.15;1.80;;;;;;;2.48;100.00;98268.56;5074398;28;20025;-80
2022/04/08 05:20:41;;;;;;;11.48;2.22;;;;;;;2.52;100.00;98277.25;5074602;28;20435;-80
2022/04/08 05:23:06;;;;;;;8.32;2.25;;;;;;;2.50;100.00;98264.09;5074676;28;20044;-79
2022/04/08 05:25:32;;;;;;;12.43;2.45;;;;;;;2.48;100.00;98283.50;5075127;28;20051;-79
2022/04/08 05:27:57;;;;;;;7.90;2.00;;;;;;;2.44;100.00;98277.47;5077869;28;20024;-79
2022/04/08 05:30:23;;;;;;;7.65;2.15;;;;;;;2.42;100.00;98287.19;5075829;28;20042;-79
2022/04/08 05:32:49;;;;;;;9.02;2.33;;;;;;;2.40;100.00;98281.09;5076325;28;20028;-79
2022/04/08 05:35:18;;;;;;;7.85;2.08;;;;;;;2.45;100.00;98287.09;5076219;28;20021;-78
2022/04/08 05:37:45;;;;;;;8.60;2.40;;;;;;;2.43;100.00;98286.28;5075558;28;20021;-78
2022/04/08 05:40:14;;;;;;;10.02;2.38;;;;;;;2.47;100.00;98292.34;5073772;28;20032;-78
2022/04/08 05:42:40;;;;;;;20.38;2.70;;;;;;;2.45;100.00;98295.00;5074286;28;20525;-78
2022/04/08 05:45:09;;;;;;;10.70;2.08;;;;;;;2.53;100.00;98282.47;5072563;28;20036;-78
2022/04/08 05:47:35;;;;;;;9.05;2.03;;;;;;;2.52;100.00;98290.44;5074747;28;20013;-78
2022/04/08 05:50:01;;;;;;;10.90;1.65;;;;;;;2.60;100.00;98298.09;5074835;28;20035;-78
2022/04/08 05:52:26;;;;;;;11.25;2.30;;;;;;;2.56;100.00;98303.47;5073395;28;20174;-78
2022/04/08 05:54:52;;;;;;;12.80;1.73;;;;;;;2.68;100.00;98309.28;5074521;28;20507;-78
2022/04/08 05:57:19;;;;;;;6.93;2.05;;;;;;;2.68;100.00;98314.56;5074899;28;20036;-78
2022/04/08 05:59:45;;;;;;;9.07;2.15;;;;;;;2.68;100.00;98330.38;5075812;28;20103;-79
2022/04/08 06:02:10;;;;;;;12.63;2.28;;;;;;;2.68;100.00;98319.84;5077495;28;20105;-79
2022/04/08 06:04:35;;;;;;;8.75;2.05;;;;;;;2.72;100.00;98315.31;5077486;28;20032;-78
2022/04/08 06:07:01;;;;;;;8.07;2.30;;;;;;;2.76;100.00;98309.03;5077610;28;20396;-79
2022/04/08 06:09:26;;;;;;;12.45;2.30;;;;;;;2.69;100.00;98324.19;5077322;28;20054;-78
2022/04/08 06:11:51;;;;;;;8.15;2.08;;;;;;;2.70;100.00;98318.00;5076286;28;20039;-79
2022/04/08 06:14:17;;;;;;;10.10;2.22;;;;;;;2.68;100.00;98325.09;5075346;28;20028;-79
2022/04/08 06:16:42;;;;;;;11.75;2.20;;;;;;;2.74;100.00;98319.63;5073311;28;20464;-78
2022/04/08 06:19:08;;;;;;;9.07;1.80;;;;;;;2.67;100.00;98321.59;5072320;28;20078;-78
2022/04/08 06:21:33;;;;;;;12.15;2.17;;;;;;;2.69;100.00;98316.28;5073765;28;20036;-78
2022/04/08 06:23:58;;;;;;;21.08;3.35;;;;;;;2.65;100.00;98317.28;5073860;28;20031;-78
2022/04/08 06:26:23;;;;;;;9.48;2.65;;;;;;;2.72;100.00;98313.56;5073919;28;20024;-78
2022/04/08 06:28:49;;;;;;;15.73;2.60;;;;;;;2.82;100.00;98329.09;5072594;28;20024;-78
2022/04/08 06:31:14;;;;;;;10.55;2.22;;;;;;;2.91;100.00;98323.56;5074040;28;20116;-78
2022/04/08 06:33:41;;;;;;;12.40;2.58;;;;;;;2.95;100.00;98329.56;5075937;28;20500;-79
2022/04/08 06:36:07;;;;;;;12.57;2.47;;;;;;;2.91;100.00;98326.19;5075227;28;20485;-78
2022/04/08 06:38:32;;;;;;;10.43;2.28;;;;;;;2.92;100.00;98320.00;5077274;28;20158;-79
2022/04/08 06:40:57;;;;;;;9.63;2.10;;;;;;;2.95;100.00;98324.31;5077260;28;20025;-79
2022/04/08 06:43:22;;;;;;;13.48;2.85;;;;;;;3.05;100.00;98319.59;5077124;28;20501;-78
2022/04/08 06:45:48;;;;;;;8.93;2.38;;;;;;;3.08;100.00;98314.25;5076552;28;20031;-79
2022/04/08 06:48:13;;;;;;;11.20;2.58;;;;;;;3.18;100.00;98330.63;5076482;28;20017;-79
2022/04/08 06:50:39;;;;;;;10.95;2.92;;;;;;;3.23;100.00;98318.16;5077176;28;20016;-79
2022/04/08 06:53:05;;;;;;;14.10;2.40;;;;;;;3.29;100.00;98322.41;5075302;28;20032;-78
2022/04/08 06:55:32;;;;;;;14.63;2.88;;;;;;;3.22;100.00;98316.47;5073850;28;20047;-78
2022/04/08 06:58:02;;;;;;;12.45;2.70;;;;;;;3.20;100.00;98312.97;5078045;28;20025;-78
2022/04/08 07:00:28;;;;;;;10.27;2.97;;;;;;;3.29;100.00;98314.47;5077495;28;20020;-78
2022/04/08 07:02:53;;;;;;;13.73;3.13;;;;;;;3.30;100.00;98321.50;5076609;28;20028;-78
2022/04/08 07:05:18;;;;;;;14.65;2.38;;;;;;;3.37;100.00;98325.66;5077386;28;20103;-78
2022/04/08 07:07:47;;;;;;;13.77;2.58;;;;;;;3.38;100.00;98327.38;5077315;28;20051;-78
2022/04/08 07:10:13;;;;;;;9.80;2.90;;;;;;;3.38;100.00;98323.84;5079087;28;20028;-78
2022/04/08 07:12:38;;;;;;;9.95;2.38;;;;;;;3.34;100.00;98323.13;5079791;28;20032;-78
2022/04/08 07:15:05;;;;;;;10.15;2.33;;;;;;;3.42;100.00;98326.38;5081126;28;20435;-79
2022/04/08 07:17:32;;;;;;;8.68;2.70;;;;;;;3.55;100.00;98328.63;5081173;28;20024;-78
2022/04/08 07:19:58;;;;;;;13.98;2.65;;;;;;;3.52;100.00;98332.22;5080772;28;20478;-79
2022/04/08 07:22:24;;;;;;;12.73;2.53;;;;;;;3.50;100.00;98335.81;5079268;28;20035;-79
2022/04/08 07:24:50;;;;;;;11.52;2.67;;;;;;;3.52;100.00;98329.56;5080495;28;20394;-79
2022/04/08 07:27:17;;;;;;;10.52;2.92;;;;;;;3.62;100.00;98324.84;5078843;28;20028;-79
2022/04/08 07:29:42;;;;;;;14.57;3.00;;;;;;;3.68;100.00;98331.72;5078913;28;20021;-78
2022/04/08 07:32:08;;;;;;;11.45;2.85;;;;;;;3.69;100.00;98326.38;5077679;28;20027;-78
2022/04/08 07:34:35;;;;;;;13.48;2.90;;;;;;;3.72;100.00;98329.81;5076699;28;20020;-78
2022/04/08 07:37:01;;;;;;;11.27;3.28;;;;;;;3.78;100.00;98330.50;5076827;28;20397;-78
2022/04/08 07:39:26;;;;;;;11.82;3.13;;;;;;;3.90;100.00;98334.47;5076980;28;20466;-78
2022/04/08 07:41:51;;;;;;;11.98;3.25;;;;;;;3.94;100.00;98339.66;5077096;28;20035;-78
2022/04/08 07:44:17;;;;;;;8.95;3.50;;;;;;;4.06;100.00;98328.66;5078528;28;20031;-79
2022/04/08 07:46:42;;;;;;;10.15;3.45;;;;;;;4.18;100.00;98339.69;5078993;28;20087;-79
2022/04/08 07:49:08;;;;;;;11.82;3.50;;;;;;;4.27;100.00;98336.75;5078571;28;20031;-79
2022/04/08 07:51:33;;;;;;;10.85;3.08;;;;;;;4.39;100.00;98340.72;5080383;28;20070;-79
2022/04/08 07:53:58;;;;;;;6.82;2.78;;;;;;;4.32;100.00;98324.25;5078831;28;20024;-79
2022/04/08 07:56:23;;;;;;;9.18;3.53;;;;;;;4.50;100.00;98337.69;5080013;28;20028;-79
2022/04/08 07:58:49;;;;;;;10.27;3.13;;;;;;;4.39;100.00;98326.66;5078405;28;20074;-79
2022/04/08 08:01:14;;;;;;;11.18;3.38;;;;;;;4.56;100.00;98339.25;5078131;28;20024;-79
2022/04/08 08:03:42;;;;;;;9.88;3.17;;;;;;;4.60;100.00;98343.50;5078044;28;20397;-79
2022/04/08 08:06:07;;;;;;;10.15;3.53;;;;;;;4.54;100.00;98338.44;5079135;28;20038;-79
2022/04/08 08:08:32;;;;;;;10.60;2.83;;;;;;;4.35;100.00;98334.72;5077037;28;20021;-78
2022/04/08 08:10:58;;;;;;;8.27;3.22;;;;;;;4.34;100.00;98330.31;5076271;28;20083;-78
2022/04/08 08:13:23;;;;;;;14.82;3.65;;;;;;;4.54;100.00;98334.03;5076374;28;20473;-78
2022/04/08 08:15:48;;;;;;;11.32;3.28;;;;;;;4.63;100.00;98342.53;5074669;28;20043;-78
2022/04/08 08:18:13;;;;;;;11.90;3.30;;;;;;;4.81;100.00;98341.00;5076249;28;20111;-78
2022/04/08 08:20:39;;;;;;;10.85;3.60;;;;;;;5.00;100.00;98330.56;5079040;28;20020;-79
2022/04/08 08:23:06;;;;;;;13.35;2.80;;;;;;;4.96;100.00;98339.53;5079702;28;20064;-79
2022/04/08 08:25:32;;;;;;;10.32;2.78;;;;;;;5.07;100.00;98338.25;5078188;28;20028;-79
2022/04/08 08:28:00;;;;;;;14.25;3.30;;;;;;;5.16;100.00;98334.38;5078666;28;20104;-79
2022/04/08 08:30:27;;;;;;;8.07;2.80;;;;;;;5.02;99.08;98341.97;5079405;28;20058;-79
2022/04/08 08:32:52;;;;;;;18.02;3.35;;;;;;;4.93;97.90;98337.00;5079906;28;20021;-78
2022/04/08 08:35:19;;;;;;;8.35;2.90;;;;;;;5.05;98.67;98340.13;5079316;28;20023;-79
2022/04/08 08:37:45;;;;;;;7.63;2.83;;;;;;;5.08;98.31;98324.09;5078792;28;20436;-79
2022/04/08 08:40:11;;;;;;;8.70;2.50;;;;;;;5.09;97.72;98315.25;5078507;28;20103;-79
2022/04/08 08:42:38;;;;;;;8.68;2.28;;;;;;;5.13;93.53;98332.72;5078360;28;20044;-79
2022/04/08 08:45:04;;;;;;;7.60;2.40;;;;;;;5.16;93.73;98335.25;5079413;28;20541;-79
2022/04/08 08:47:30;;;;;;;12.02;2.67;;;;;;;5.30;94.56;98328.56;5075408;28;20028;-78
2022/04/08 08:49:56;;;;;;;5.63;2.00;;;;;;;5.35;92.50;98324.81;5074224;28;20389;-78
2022/04/08 08:52:22;;;;;;;5.82;1.85;;;;;;;5.35;88.86;98322.16;5075489;28;20024;-78
2022/04/08 08:54:49;;;;;;;8.60;2.55;;;;;;;5.50;92.64;98313.63;5076372;28;20020;-79
2022/04/08 08:57:16;;;;;;;8.45;2.30;;;;;;;5.70;92.41;98311.03;5077963;28;20028;-79
2022/04/08 08:59:42;;;;;;;8.48;2.13;;;;;;;5.74;88.26;98313.56;5077802;28;20445;-79
2022/04/08 09:02:07;;;;;;;9.93;2.03;;;;;;;5.80;87.98;98316.78;5079193;28;20032;-78
2022/04/08 09:04:40;;;;;;;7.07;2.30;;;;;;;5.88;85.73;98320.91;5078993;28;20465;-79
2022/04/08 09:07:06;;;;;;;6.63;2.00;;;;;;;5.86;84.61;98328.06;5118737;22;20048;-87
2022/04/08 09:09:32;;;;;;;7.95;2.00;;;;;;;5.93;84.70;98319.78;5073424;28;20045;-87
2022/04/08 09:12:14;;;;;;;5.10;1.40;;;;;;;5.99;81.15;98312.50;5075243;28;20025;-88
2022/04/08 09:14:52;;;;;;;5.28;1.70;;;;;;;6.16;81.91;98322.41;5074426;28;20111;-89
2022/04/08 09:17:22;;;;;;;6.38;1.90;;;;;;;6.18;81.95;98317.03;5074577;28;20074;-88
2022/04/08 09:19:48;;;;;;;4.60;1.70;;;;;;;6.44;81.97;98313.22;5072897;28;20024;-87
2022/04/08 09:22:21;;;;;;;7.82;1.58;;;;;;;6.59;79.16;98318.78;5075201;28;20021;-88
2022/04/08 09:24:47;;;;;;;5.00;1.55;;;;;;;6.45;76.26;98316.75;5075755;28;20379;-88
2022/04/08 09:27:12;;;;;;;6.10;1.38;;;;;;;6.57;75.16;98320.66;5073500;28;20485;-87
2022/04/08 09:29:42;;;;;;;3.83;1.42;;;;;;;6.80;76.47;98313.44;5075178;28;20078;-88
2022/04/08 09:32:09;;;;;;;6.78;1.88;;;;;;;6.98;78.38;98317.00;5073728;28;20025;-88
2022/04/08 09:34:38;;;;;;;5.75;1.60;;;;;;;6.85;75.24;98310.56;5075099;28;20028;-87
2022/04/08 09:37:11;;;;;;;6.05;1.60;;;;;;;7.06;75.63;98306.00;5073565;28;20380;-88
2022/04/08 09:39:58;;;;;;;7.43;1.23;;;;;;;7.01;72.67;98294.78;5073695;28;20036;-88
2022/04/08 09:42:32;;;;;;;5.20;1.65;;;;;;;6.55;73.31;98299.47;5074785;28;20020;-87
2022/04/08 09:45:01;;;;;;;4.68;1.60;;;;;;;6.67;73.72;98302.53;5073590;28;20111;-87
2022/04/08 09:47:33;;;;;;;5.93;1.67;;;;;;;6.62;74.72;98293.91;5072746;28;20066;-87
2022/04/08 09:49:58;;;;;;;7.32;1.60;;;;;;;6.66;72.83;98296.34;5079442;28;20070;-87
2022/04/08 09:52:25;;;;;;;6.82;1.58;;;;;;;6.79;72.99;98291.34;5075434;28;20021;-87
2022/04/08 09:55:00;;;;;;;4.30;1.80;;;;;;;6.78;75.05;98289.59;5073486;28;20120;-88
2022/04/08 09:57:30;;;;;;;5.05;1.50;;;;;;;6.64;71.85;98292.03;5074325;28;20024;-88
2022/04/08 10:00:18;;;;;;;4.47;1.63;;;;;;;6.66;72.03;98284.88;5073226;28;20538;-87
2022/04/08 10:02:55;;;;;;;4.78;1.48;;;;;;;6.75;72.54;98279.13;5073424;28;20067;-87
2022/04/08 10:05:24;;;;;;;3.92;1.38;;;;;;;6.99;71.77;98276.25;5073105;28;20021;-87
2022/04/08 10:07:55;;;;;;;7.90;1.65;;;;;;;6.94;72.62;98275.63;5072536;28;20033;-88
2022/04/08 10:10:37;;;;;;;5.03;1.50;;;;;;;7.01;72.27;98258.47;5073154;28;20111;-87
2022/04/08 10:13:30;;;;;;;3.50;1.20;;;;;;;7.30;70.89;98252.66;5073538;28;20465;-88
2022/04/08 10:16:03;;;;;;;4.35;1.10;;;;;;;7.11;67.29;98268.66;5074675;28;20043;-88
2022/04/08 10:18:36;;;;;;;8.82;1.30;;;;;;;6.99;67.20;98268.28;5073909;28;20101;-88
2022/04/08 10:21:02;;;;;;;5.15;1.30;;;;;;;7.26;65.95;98267.03;5073922;28;20094;-88
2022/04/08 10:23:39;;;;;;;4.30;1.38;;;;;;;7.03;68.00;98256.63;5072915;28;20496;-87
2022/04/08 10:26:06;;;;;;;4.20;1.80;;;;;;;7.20;70.30;98252.28;5072113;28;20024;-87
2022/04/08 10:28:38;;;;;;;8.05;1.35;;;;;;;6.95;69.48;98252.59;5073342;28;20115;-88
2022/04/08 10:31:18;;;;;;;5.28;1.73;;;;;;;7.29;70.32;98252.75;5073625;28;20052;-87
2022/04/08 10:33:52;;;;;;;5.57;1.50;;;;;;;7.18;67.46;98263.91;5072300;28;20033;-87
2022/04/08 10:36:29;;;;;;;7.60;1.60;;;;;;;7.27;67.28;98268.75;5073584;28;20056;-87
2022/04/08 10:39:09;;;;;;;5.10;1.85;;;;;;;7.45;66.83;98256.34;5074023;28;20024;-86
2022/04/08 10:41:53;;;;;;;6.43;1.90;;;;;;;7.57;67.29;98262.00;5075700;28;20052;-86
2022/04/08 10:44:45;;;;;;;4.80;1.27;;;;;;;7.55;63.01;98251.44;5075482;28;20028;-86
2022/04/08 10:47:33;;;;;;;5.43;1.10;;;;;;;7.49;67.18;98246.47;5076637;28;20102;-86
2022/04/08 10:50:07;;;;;;;6.20;1.50;;;;;;;7.47;67.02;98251.81;5081668;28;20016;-84
2022/04/08 10:52:45;;;;;;;4.63;1.30;;;;;;;7.62;65.73;98246.69;5078737;28;20485;-86
2022/04/08 10:58:33;;;;;;;3.53;1.25;;;;;;;7.52;66.60;98246.31;5074644;28;20493;-86
2022/04/08 11:01:22;;;;;;;4.80;1.60;;;;;;;7.63;71.93;98237.78;5061117;28;20029;-86
2022/04/08 11:04:29;;;;;;;4.32;2.33;;;;;;;7.43;66.35;98242.31;5061028;28;20064;-87
2022/04/08 11:07:03;;;;;;;5.75;1.75;;;;;;;7.46;70.73;98242.16;5029464;28;20036;-86
2022/04/08 11:09:29;;;;;;;;;;;;;;;7.42;71.11;98245.88;5081193;28;20035;-85
2022/04/08 11:12:01;;;;;;;6.97;1.58;;;;;;;7.24;69.48;98240.56;5079782;28;19908;-86
2022/04/08 11:14:41;;;;;;;5.53;1.50;;;;;;;7.14;69.28;98236.63;5083415;28;20021;-86
2022/04/08 11:17:38;;;;;;;4.97;1.38;;;;;;;7.33;66.63;98235.72;5080607;28;20440;-86
2022/04/08 11:20:31;;;;;;;7.60;1.85;;;;;;;7.26;68.05;98235.19;5045682;28;20037;-87
2022/04/08 11:23:09;;;;;;;5.57;1.88;;;;;;;7.29;64.65;98239.50;5082116;28;20196;-86
2022/04/08 11:26:18;;;;;;;5.35;1.90;;;;;;;7.37;67.21;98242.63;5081846;28;20028;-87
2022/04/08 11:28:49;;;;;;;5.35;1.60;;;;;;;7.23;66.51;98249.47;5067953;28;20121;-86
2022/04/08 11:31:22;;;;;;;3.10;1.65;;;;;;;7.14;68.75;98236.63;5074690;28;20482;-86
2022/04/08 11:33:54;;;;;;;5.47;1.50;;;;;;;7.21;67.97;98232.78;5074997;28;20052;-85
2022/04/08 11:36:25;;;;;;;7.32;1.92;;;;;;;7.34;71.00;98232.16;5079656;28;20556;-84
2022/04/08 11:38:59;;;;;;;5.10;1.75;;;;;;;7.41;68.18;98244.19;5078838;28;20485;-85
2022/04/08 11:41:38;;;;;;;6.80;2.20;;;;;;;7.23;64.51;98244.16;5081321;28;20024;-86